Time;durP1;ratioP1;P1;durP2;ratioP2;P2;SDS_P1;SDS_P2;PMS_P1;PMS_P2;Temp;Humidity;BMP_temperature;BMP_pressure;BME280_temperature;BME280_humidity;BME280_pressure;Samples;Min_cycle;Max_cycle;Signal;HPM_P1;HPM_P2
2022/03/15 00:00:47;;;;;;;;;;;;;;;20.51;19.69;99681.16;4976541;28;984;-74
2022/03/15 00:03:13;;;;;;;;;;;;;;;20.48;19.56;99676.31;4978323;28;1903;-74
2022/03/15 00:05:39;;;;;;;;;;;;;;;20.64;19.36;99673.94;4978782;28;851;-74
2022/03/15 00:08:05;;;;;;;;;;;;;;;21.03;18.92;99678.91;5015086;28;1029;-74
2022/03/15 00:10:31;;;;;;;;;;;;;;;21.20;18.62;99678.13;5015316;28;1038;-74
2022/03/15 00:12:56;;;;;;;;;;;;;;;21.23;18.66;99671.66;5015470;28;1062;-74
2022/03/15 00:15:22;;;;;;;;;;;;;;;21.46;18.67;99674.16;5015547;28;970;-74
2022/03/15 00:17:48;;;;;;;;;;;;;;;21.62;18.39;99676.56;5015333;28;1037;-74
2022/03/15 00:20:18;;;;;;;;;;;;;;;21.67;18.37;99676.19;5015188;28;972;-74
2022/03/15 00:22:44;;;;;;;;;;;;;;;21.67;18.36;99673.34;5015089;28;1973;-74
2022/03/15 00:25:11;;;;;;;;;;;;;;;21.80;17.97;99668.88;5015084;28;1029;-74
2022/03/15 00:27:37;;;;;;;;;;;;;;;21.83;18.06;99673.72;5014657;28;1151;-74
2022/03/15 00:30:05;;;;;;;;;;;;;;;21.94;18.02;99672.91;4995275;28;1290;-74
2022/03/15 00:32:31;;;;;;;;;;;;;;;21.35;18.68;99664.00;4994907;28;1170;-74
2022/03/15 00:34:59;;;;;;;;;;;;;;;21.21;18.57;99667.63;4995347;28;1120;-74
2022/03/15 00:37:24;;;;;;;;;;;;;;;21.57;18.40;99662.81;4994920;28;980;-74
2022/03/15 00:39:50;;;;;;;;;;;;;;;21.75;18.08;99657.94;4995189;28;1260;-74
2022/03/15 00:42:16;;;;;;;;;;;;;;;21.88;17.87;99658.34;4954571;28;1910;-74
2022/03/15 00:44:41;;;;;;;;;;;;;;;21.89;17.86;99650.66;4952949;29;1075;-74
2022/03/15 00:47:08;;;;;;;;;;;;;;;21.25;18.94;99651.47;4955932;29;1398;-74
2022/03/15 00:49:36;;;;;;;;;;;;;;;21.32;18.73;99657.94;4940603;28;1005;-74
2022/03/15 00:52:01;;;;;;;;;;;;;;;21.33;18.28;99610.63;4956160;29;1019;-74
2022/03/15 00:54:27;;;;;;;;;;;;;;;21.81;18.02;99650.66;4956189;28;1025;-74
2022/03/15 00:56:52;;;;;;;;;;;;;;;22.06;17.86;99644.13;4936713;29;1238;-74
2022/03/15 00:59:19;;;;;;;;;;;;;;;21.60;18.22;99645.00;4937004;29;1028;-74
2022/03/15 01:01:45;;;;;;;;;;;;;;;21.32;18.53;99646.63;4902834;29;1313;-74
2022/03/15 01:04:10;;;;;;;;;;;;;;;21.33;18.58;99648.25;4898946;29;1888;-74
2022/03/15 01:06:37;;;;;;;;;;;;;;;21.70;18.14;99641.34;4898642;29;994;-74
2022/03/15 01:09:05;;;;;;;;;;;;;;;21.94;18.02;99636.06;4899072;29;1031;-74
2022/03/15 01:11:33;;;;;;;;;;;;;;;22.08;17.77;99633.19;4917425;29;994;-74
2022/03/15 01:13:59;;;;;;;;;;;;;;;21.31;18.74;99633.69;4917780;29;1180;-74
2022/03/15 01:16:24;;;;;;;;;;;;;;;21.27;19.06;99629.19;4917463;29;1166;-74
2022/03/15 01:18:50;;;;;;;;;;;;;;;21.59;18.42;99637.72;4902630;29;1020;-74
2022/03/15 01:21:15;;;;;;;;;;;;;;;21.78;18.27;99634.47;4898099;29;2627;-74
2022/03/15 01:23:41;;;;;;;;;;;;;;;21.80;18.22;99615.03;4898550;29;1975;-74
2022/03/15 01:26:07;;;;;;;;;;;;;;;21.32;18.59;99623.97;4898585;29;999;-74
2022/03/15 01:28:34;;;;;;;;;;;;;;;21.16;18.71;99631.22;4955394;29;1270;-74
2022/03/15 01:31:00;;;;;;;;;;;;;;;21.62;18.45;99622.75;4917528;29;1096;-74
2022/03/15 01:33:26;;;;;;;;;;;;;;;21.82;18.29;99621.13;4917493;29;999;-74
2022/03/15 01:35:51;;;;;;;;;;;;;;;21.89;18.11;99613.81;4917318;29;1074;-74
2022/03/15 01:38:19;;;;;;;;;;;;;;;21.37;18.44;99613.47;4917198;29;1192;-74
2022/03/15 01:40:44;;;;;;;;;;;;;;;21.08;19.08;99613.41;4917287;29;972;-74
2022/03/15 01:43:11;;;;;;;;;;;;;;;21.53;18.37;99608.19;4916785;29;1906;-74
2022/03/15 01:45:37;;;;;;;;;;;;;;;21.77;18.21;99615.06;4935742;29;1308;-74
2022/03/15 01:48:04;;;;;;;;;;;;;;;21.92;17.96;99613.00;4935947;29;930;-74
2022/03/15 01:50:29;;;;;;;;;;;;;;;21.41;18.39;99608.63;4936071;29;1064;-74
2022/03/15 01:52:56;;;;;;;;;;;;;;;21.26;18.89;99608.56;4951127;28;1333;-74
2022/03/15 01:55:22;;;;;;;;;;;;;;;21.33;18.91;99602.94;4955263;29;1027;-74
2022/03/15 01:57:47;;;;;;;;;;;;;;;21.19;18.94;99610.59;4955066;29;1277;-74
2022/03/15 02:00:14;;;;;;;;;;;;;;;21.00;19.17;99606.13;4920981;29;1448;-74
2022/03/15 02:02:49;;;;;;;;;;;;;;;21.04;18.89;99604.94;4932425;29;1906;-74
2022/03/15 02:05:15;;;;;;;;;;;;;;;20.89;19.35;99605.31;4916978;29;1410;-74
2022/03/15 02:07:40;;;;;;;;;;;;;;;20.74;19.60;99599.63;4916527;29;1100;-74
2022/03/15 02:10:06;;;;;;;;;;;;;;;20.89;19.19;99605.31;4897814;29;1305;-74
2022/03/15 02:12:32;;;;;;;;;;;;;;;20.84;19.26;99609.34;4860500;29;983;-74
2022/03/15 02:15:01;;;;;;;;;;;;;;;20.85;19.16;99596.00;4860654;29;1074;-74
2022/03/15 02:17:27;;;;;;;;;;;;;;;21.02;18.95;99598.03;4860703;29;1076;-74
2022/03/15 02:19:52;;;;;;;;;;;;;;;20.90;18.98;99589.94;4860711;29;1349;-74
2022/03/15 02:22:19;;;;;;;;;;;;;;;20.87;18.96;99588.72;4860194;29;1911;-74
2022/03/15 02:24:45;;;;;;;;;;;;;;;20.84;19.30;99597.22;4860625;29;991;-74
2022/03/15 02:27:12;;;;;;;;;;;;;;;20.72;19.53;99590.72;4879361;29;1079;-74
2022/03/15 02:29:37;;;;;;;;;;;;;;;20.78;19.31;99583.47;4894831;29;1094;-74
2022/03/15 02:32:03;;;;;;;;;;;;;;;20.75;19.22;99583.47;4910575;29;1024;-74
2022/03/15 02:34:28;;;;;;;;;;;;;;;20.77;19.31;99587.50;4916878;29;1004;-74
2022/03/15 02:36:54;;;;;;;;;;;;;;;20.96;19.13;99583.50;4946013;29;1010;-74
2022/03/15 02:39:19;;;;;;;;;;;;;;;21.25;18.75;99584.31;4955247;29;1002;-74
2022/03/15 02:41:45;;;;;;;;;;;;;;;21.36;18.59;99586.38;4940505;29;1248;-74
2022/03/15 02:44:11;;;;;;;;;;;;;;;21.56;18.28;99593.22;4965158;28;1983;-74
2022/03/15 02:46:39;;;;;;;;;;;;;;;21.66;18.14;99591.56;4954804;29;1014;-74
2022/03/15 02:49:05;;;;;;;;;;;;;;;21.67;18.19;99587.56;4973944;28;1069;-74
2022/03/15 02:51:31;;;;;;;;;;;;;;;21.78;18.23;99589.13;4935643;29;1119;-74
2022/03/15 02:53:57;;;;;;;;;;;;;;;21.91;18.05;99591.53;4935597;29;967;-74
2022/03/15 02:56:23;;;;;;;;;;;;;;;21.18;18.70;99595.63;4897725;29;933;-74
2022/03/15 02:58:48;;;;;;;;;;;;;;;21.08;19.10;99597.22;4912245;29;1227;-74
2022/03/15 03:01:14;;;;;;;;;;;;;;;21.25;18.68;99598.47;4916620;29;959;-74
2022/03/15 03:03:39;;;;;;;;;;;;;;;21.48;18.48;99603.75;4916483;29;1939;-74
2022/03/15 03:06:05;;;;;;;;;;;;;;;21.65;18.23;99602.09;4918210;29;1045;-74
2022/03/15 03:08:30;;;;;;;;;;;;;;;21.91;18.02;99600.03;4904226;29;1094;-74
2022/03/15 03:11:00;;;;;;;;;;;;;;;21.30;18.55;99597.28;4920222;29;1061;-74
2022/03/15 03:13:26;;;;;;;;;;;;;;;21.13;19.00;99607.34;4920112;29;1162;-74
2022/03/15 03:15:58;;;;;;;;;;;;;;;21.46;18.45;99600.53;4919936;29;985;-74
2022/03/15 03:18:28;;;;;;;;;;;;;;;21.57;18.19;99600.50;4920109;29;1030;-74
2022/03/15 03:20:54;;;;;;;;;;;;;;;21.81;18.21;99599.66;4919640;29;943;-74
2022/03/15 03:23:19;;;;;;;;;;;;;;;21.83;18.02;99591.56;4951871;28;1911;-74
2022/03/15 03:25:45;;;;;;;;;;;;;;;21.45;18.36;99586.75;4958157;29;1076;-74
2022/03/15 03:28:13;;;;;;;;;;;;;;;21.27;18.56;99587.53;4976104;28;1074;-74
2022/03/15 03:30:41;;;;;;;;;;;;;;;21.48;18.57;99585.94;4979615;28;949;-74
2022/03/15 03:33:06;;;;;;;;;;;;;;;21.79;18.21;99590.75;5009833;28;1081;-74
2022/03/15 03:35:31;;;;;;;;;;;;;;;21.95;18.03;99587.47;4979690;28;902;-74
2022/03/15 03:37:57;;;;;;;;;;;;;;;21.46;18.43;99594.06;4979418;28;986;-74
2022/03/15 03:40:24;;;;;;;;;;;;;;;21.31;18.71;99591.22;4977475;28;998;-74
2022/03/15 03:42:50;;;;;;;;;;;;;;;21.51;18.31;99591.63;4979603;28;1910;-74
2022/03/15 03:45:15;;;;;;;;;;;;;;;21.72;18.31;99595.63;4979667;28;1064;-74
2022/03/15 03:47:41;;;;;;;;;;;;;;;21.89;17.91;99589.09;4979306;28;962;-74
2022/03/15 03:50:09;;;;;;;;;;;;;;;21.57;18.03;99595.66;4979387;28;925;-74
2022/03/15 03:52:35;;;;;;;;;;;;;;;21.29;18.80;99590.78;4979181;28;938;-74
2022/03/15 03:55:00;;;;;;;;;;;;;;;21.31;18.69;99591.22;4979650;28;894;-74
2022/03/15 03:57:29;;;;;;;;;;;;;;;21.75;18.23;99595.59;4978835;28;989;-74
2022/03/15 03:59:54;;;;;;;;;;;;;;;21.88;17.94;99596.00;4979058;28;1039;-74
2022/03/15 04:02:20;;;;;;;;;;;;;;;21.43;18.65;99594.84;5009389;28;1906;-74
2022/03/15 04:04:45;;;;;;;;;;;;;;;21.24;18.82;99599.69;4979240;28;1028;-74
2022/03/15 04:07:11;;;;;;;;;;;;;;;21.23;18.64;99600.88;4979274;28;1003;-74
2022/03/15 04:09:37;;;;;;;;;;;;;;;21.73;18.33;99602.91;4978602;28;1117;-74
2022/03/15 04:12:04;;;;;;;;;;;;;;;21.77;18.02;99604.53;4978944;28;912;-74
2022/03/15 04:14:30;;;;;;;;;;;;;;;21.81;18.23;99610.16;5009358;28;927;-74
2022/03/15 04:16:55;;;;;;;;;;;;;;;21.51;18.31;99602.94;4979107;28;1109;-74
2022/03/15 04:19:21;;;;;;;;;;;;;;;21.32;18.42;99600.53;4978809;28;865;-74
2022/03/15 04:21:47;;;;;;;;;;;;;;;21.35;18.71;99601.72;4978735;28;1041;-74
2022/03/15 04:24:14;;;;;;;;;;;;;;;21.69;18.26;99596.44;4978691;28;1987;-74
2022/03/15 04:26:41;;;;;;;;;;;;;;;21.96;17.77;99605.28;4978569;28;958;-74
2022/03/15 04:29:06;;;;;;;;;;;;;;;21.58;18.50;99607.78;4978698;28;965;-74
2022/03/15 04:31:32;;;;;;;;;;;;;;;21.33;18.57;99591.59;4978509;28;1014;-74
2022/03/15 04:33:57;;;;;;;;;;;;;;;21.43;18.37;99600.50;4978827;28;978;-75
2022/03/15 04:36:23;;;;;;;;;;;;;;;21.58;18.19;99599.28;4978563;28;909;-74
2022/03/15 04:38:49;;;;;;;;;;;;;;;21.73;17.99;99591.56;4978499;28;961;-74
2022/03/15 04:41:15;;;;;;;;;;;;;;;21.85;18.19;99594.78;4976272;28;1132;-74
2022/03/15 04:43:40;;;;;;;;;;;;;;;21.50;18.22;99594.84;4978603;28;1907;-74
2022/03/15 04:46:06;;;;;;;;;;;;;;;21.40;18.47;99607.81;4978505;28;905;-74
2022/03/15 04:48:32;;;;;;;;;;;;;;;21.59;18.33;99601.72;5014370;28;1038;-74
2022/03/15 04:50:58;;;;;;;;;;;;;;;21.73;18.29;99603.72;5014998;28;1014;-74
2022/03/15 04:53:24;;;;;;;;;;;;;;;21.85;18.21;99600.44;5014704;28;1097;-74
2022/03/15 04:55:49;;;;;;;;;;;;;;;21.55;18.41;99585.94;4982016;28;968;-74
2022/03/15 04:58:15;;;;;;;;;;;;;;;21.28;18.50;99594.81;5014689;28;866;-74
2022/03/15 05:00:40;;;;;;;;;;;;;;;21.34;18.46;99592.41;5004437;28;1660;-74
2022/03/15 05:03:06;;;;;;;;;;;;;;;21.66;17.99;99598.06;4975537;28;1977;-74
2022/03/15 05:05:31;;;;;;;;;;;;;;;21.90;18.01;99590.72;4975582;28;979;-74
2022/03/15 05:07:57;;;;;;;;;;;;;;;22.01;17.95;99587.84;4975495;28;913;-74
2022/03/15 05:13:07;;;;;;;;;;;;;;;21.31;18.78;99588.38;4994734;28;1032;-75
2022/03/15 05:15:33;;;;;;;;;;;;;;;21.47;18.36;99595.66;4994728;28;979;-74
2022/03/15 05:17:59;;;;;;;;;;;;;;;21.67;18.49;99594.03;4975206;28;1059;-74
2022/03/15 05:20:28;;;;;;;;;;;;;;;21.91;17.87;99589.50;4974909;28;1156;-74
2022/03/15 05:22:54;;;;;;;;;;;;;;;22.02;18.02;99581.78;4975144;28;1979;-74
2022/03/15 05:25:19;;;;;;;;;;;;;;;22.08;17.72;99585.00;4970445;28;1663;-74
2022/03/15 05:27:45;;;;;;;;;;;;;;;21.62;18.41;99588.78;4974582;28;1789;-74
2022/03/15 05:30:10;;;;;;;;;;;;;;;21.46;18.31;99585.56;4974948;28;1033;-74
2022/03/15 05:32:36;;;;;;;;;;;;;;;21.38;18.66;99583.94;4975136;28;1008;-74
2022/03/15 05:35:02;;;;;;;;;;;;;;;21.65;18.24;99582.28;4974977;28;1070;-74
2022/03/15 05:37:27;;;;;;;;;;;;;;;21.83;18.28;99588.72;4974922;28;1129;-74
2022/03/15 05:39:53;;;;;;;;;;;;;;;21.97;17.97;99578.56;4975165;28;993;-74
2022/03/15 05:42:18;;;;;;;;;;;;;;;21.40;18.86;99573.84;4955236;28;1910;-74
2022/03/15 05:44:44;;;;;;;;;;;;;;;21.20;18.96;99575.44;4954996;29;1718;-74
2022/03/15 05:47:09;;;;;;;;;;;;;;;21.31;18.83;99571.41;4955283;29;1004;-74
2022/03/15 05:49:35;;;;;;;;;;;;;;;21.77;18.20;99570.53;4970326;28;917;-74
2022/03/15 05:52:00;;;;;;;;;;;;;;;22.02;17.97;99569.63;4974761;28;1000;-74
2022/03/15 05:54:26;;;;;;;;;;;;;;;21.75;18.10;99572.94;4974783;28;993;-74
2022/03/15 05:56:51;;;;;;;;;;;;;;;21.45;18.83;99564.09;4974790;28;963;-74
2022/03/15 05:59:17;;;;;;;;;;;;;;;21.40;18.78;99573.00;4974479;28;1828;-74
2022/03/15 06:01:42;;;;;;;;;;;;;;;21.80;17.98;99564.03;4958004;28;1037;-74
2022/03/15 06:04:10;;;;;;;;;;;;;;;21.91;17.96;99557.53;4974898;28;1997;-74
2022/03/15 06:06:36;;;;;;;;;;;;;;;21.73;18.46;99558.38;4974599;28;1019;-74
2022/03/15 06:09:01;;;;;;;;;;;;;;;21.44;18.78;99557.63;4974553;28;1025;-74
2022/03/15 06:11:27;;;;;;;;;;;;;;;21.35;18.99;99554.41;4974937;28;1014;-75
2022/03/15 06:13:52;;;;;;;;;;;;;;;21.76;18.21;99560.41;4990429;28;1645;-74
2022/03/15 06:16:18;;;;;;;;;;;;;;;21.83;18.42;99560.38;4996422;28;913;-74
2022/03/15 06:18:44;;;;;;;;;;;;;;;22.08;17.82;99562.34;4996374;28;966;-74
2022/03/15 06:21:09;;;;;;;;;;;;;;;21.54;18.63;99567.31;4995912;28;996;-74
2022/03/15 06:23:35;;;;;;;;;;;;;;;21.32;18.66;99570.19;4993911;28;1983;-74
2022/03/15 06:26:00;;;;;;;;;;;;;;;21.38;18.88;99564.91;4996867;28;962;-74
2022/03/15 06:28:26;;;;;;;;;;;;;;;21.75;18.25;99575.78;4995644;28;1562;-74
2022/03/15 06:30:51;;;;;;;;;;;;;;;21.95;18.21;99569.66;4996267;28;906;-74
2022/03/15 06:33:16;;;;;;;;;;;;;;;21.65;18.23;99568.09;4996272;28;916;-74
2022/03/15 06:35:46;;;;;;;;;;;;;;;21.31;19.01;99554.41;4995771;28;910;-74
2022/03/15 06:38:11;;;;;;;;;;;;;;;21.37;19.07;99562.50;4995892;28;1132;-74
2022/03/15 06:40:37;;;;;;;;;;;;;;;21.70;18.56;99567.69;4997358;28;821;-74
2022/03/15 06:43:03;;;;;;;;;;;;;;;21.83;18.46;99568.88;4999337;28;1910;-74
2022/03/15 06:45:28;;;;;;;;;;;;;;;21.46;18.64;99572.19;5000166;28;963;-74
2022/03/15 06:47:54;;;;;;;;;;;;;;;21.36;18.72;99570.19;4999852;28;985;-74
2022/03/15 06:50:20;;;;;;;;;;;;;;;20.98;19.27;99572.56;4999972;28;939;-74
2022/03/15 06:52:45;;;;;;;;;;;;;;;21.83;18.27;99577.38;4999683;28;946;-74
2022/03/15 06:55:11;;;;;;;;;;;;;;;21.97;18.26;99572.91;4999498;28;1793;-74
2022/03/15 06:57:37;;;;;;;;;;;;;;;21.57;18.65;99577.84;4997634;28;944;-74
2022/03/15 07:00:06;;;;;;;;;;;;;;;21.28;18.95;99577.84;4996717;28;1682;-74
2022/03/15 07:02:32;;;;;;;;;;;;;;;21.42;18.72;99576.25;5007445;28;1906;-74
2022/03/15 07:04:57;;;;;;;;;;;;;;;21.74;18.36;99577.00;4999534;28;1092;-74
2022/03/15 07:07:23;;;;;;;;;;;;;;;21.98;18.18;99580.19;4999533;28;914;-74
2022/03/15 07:09:48;;;;;;;;;;;;;;;21.38;18.83;99581.91;4999413;28;1910;-74
2022/03/15 07:12:14;;;;;;;;;;;;;;;21.24;19.16;99584.69;4999550;28;1681;-74
2022/03/15 07:14:40;;;;;;;;;;;;;;;21.72;18.68;99579.44;4977311;28;1035;-74
2022/03/15 07:17:05;;;;;;;;;;;;;;;22.02;18.12;99573.28;4977655;28;1016;-74
2022/03/15 07:19:31;;;;;;;;;;;;;;;22.01;18.18;99576.50;4977172;28;1041;-74
2022/03/15 07:21:56;;;;;;;;;;;;;;;21.43;18.82;99586.34;4977505;28;1141;-74
2022/03/15 07:24:22;;;;;;;;;;;;;;;21.28;18.75;99585.53;4977038;28;1898;-74
2022/03/15 07:26:47;;;;;;;;;;;;;;;21.70;18.32;99587.53;4977104;28;1663;-74
2022/03/15 07:29:13;;;;;;;;;;;;;;;21.83;18.36;99583.06;4977346;28;1025;-74
2022/03/15 07:31:38;;;;;;;;;;;;;;;21.97;18.08;99578.56;4977144;28;945;-72
2022/03/15 07:34:03;;;;;;;;;;;;;;;22.04;17.92;99578.53;4977534;28;995;-74
2022/03/15 07:36:29;;;;;;;;;;;;;;;21.45;18.50;99583.91;4977000;28;1022;-74
2022/03/15 07:38:55;;;;;;;;;;;;;;;21.37;18.84;99585.16;4960835;28;992;-74
2022/03/15 07:41:23;;;;;;;;;;;;;;;21.46;18.69;99582.72;4956899;28;1754;-74
2022/03/15 07:43:49;;;;;;;;;;;;;;;21.69;18.20;99580.25;4938100;29;1986;-74
2022/03/15 07:46:14;;;;;;;;;;;;;;;21.91;18.22;99588.69;4952273;29;962;-74
2022/03/15 07:48:40;;;;;;;;;;;;;;;21.69;18.51;99580.25;4957264;29;1031;-74
2022/03/15 07:51:05;;;;;;;;;;;;;;;21.50;18.76;99592.00;4957067;28;1103;-74
2022/03/15 07:53:30;;;;;;;;;;;;;;;21.22;18.85;99589.97;4925360;29;1002;-74
2022/03/15 07:55:56;;;;;;;;;;;;;;;21.53;18.37;99589.19;4957342;29;1710;-74
2022/03/15 07:58:22;;;;;;;;;;;;;;;21.78;18.37;99589.13;4957139;29;2000;-74
2022/03/15 08:00:48;;;;;;;;;;;;;;;21.99;18.13;99587.47;4957361;29;1114;-74
2022/03/15 08:03:13;;;;;;;;;;;;;;;21.55;18.47;99583.09;4957163;29;1899;-74
2022/03/15 08:05:39;;;;;;;;;;;;;;;21.31;18.60;99585.56;4956129;29;1727;-74
2022/03/15 08:08:05;;;;;;;;;;;;;;;21.22;18.95;99585.13;4956965;29;1683;-74
2022/03/15 08:10:31;;;;;;;;;;;;;;;21.63;18.57;99584.72;4956413;29;1659;-74
2022/03/15 08:12:57;;;;;;;;;;;;;;;21.88;17.92;99586.69;4957083;29;1651;-74
2022/03/15 08:15:24;;;;;;;;;;;;;;;21.95;17.92;99578.97;4985572;28;1866;-74
2022/03/15 08:17:49;;;;;;;;;;;;;;;21.51;18.65;99579.47;4995948;28;1035;-74
2022/03/15 08:20:18;;;;;;;;;;;;;;;21.35;18.74;99573.41;4997447;28;981;-74
2022/03/15 08:22:43;;;;;;;;;;;;;;;21.60;18.12;99582.69;4999187;28;2260;-75
2022/03/15 08:25:09;;;;;;;;;;;;;;;22.01;18.12;99570.84;5017755;28;680;-75
2022/03/15 08:27:35;;;;;;;;;;;;;;;22.00;17.83;99566.41;4963039;28;1590;-75
2022/03/15 08:30:00;;;;;;;;;;;;;;;21.56;18.41;99570.56;4956965;28;1013;-74
2022/03/15 08:32:26;;;;;;;;;;;;;;;21.40;18.64;99567.34;4956867;29;960;-74
2022/03/15 08:34:51;;;;;;;;;;;;;;;21.50;18.55;99561.69;4924593;29;1080;-74
2022/03/15 08:37:17;;;;;;;;;;;;;;;22.03;17.91;99565.59;4956779;28;1020;-74
2022/03/15 08:39:43;;;;;;;;;;;;;;;22.04;17.95;99558.69;4956876;29;1898;-74
2022/03/15 08:42:09;;;;;;;;;;;;;;;21.62;18.34;99560.44;4956382;29;1032;-74
2022/03/15 08:44:34;;;;;;;;;;;;;;;21.38;18.44;99558.44;4956436;29;1903;-74
2022/03/15 08:47:00;;;;;;;;;;;;;;;21.41;18.56;99555.63;4956576;28;975;-74
2022/03/15 08:49:25;;;;;;;;;;;;;;;21.83;18.02;99568.09;4956519;29;1042;-74
2022/03/15 08:51:51;;;;;;;;;;;;;;;21.92;17.99;99559.16;4956379;28;1182;-75
2022/03/15 08:54:17;;;;;;;;;;;;;;;21.55;18.43;99557.59;4956526;29;928;-75
2022/03/15 08:56:43;;;;;;;;;;;;;;;21.43;18.38;99560.88;4956437;29;1030;-74
2022/03/15 08:59:09;;;;;;;;;;;;;;;21.50;18.41;99560.84;4955858;29;1034;-74
2022/03/15 09:01:35;;;;;;;;;;;;;;;21.75;18.24;99550.28;4936662;29;1117;-74
2022/03/15 09:04:01;;;;;;;;;;;;;;;22.07;17.83;99555.03;4939679;28;1985;-74
2022/03/15 09:06:27;;;;;;;;;;;;;;;21.71;18.17;99560.00;4975246;28;1748;-74
2022/03/15 09:08:52;;;;;;;;;;;;;;;21.45;18.49;99552.75;4974798;28;1666;-74
2022/03/15 09:11:18;;;;;;;;;;;;;;;21.28;18.66;99560.84;4975384;28;928;-74
2022/03/15 09:13:43;;;;;;;;;;;;;;;21.52;18.08;99547.91;4975336;28;956;-74
2022/03/15 09:16:10;;;;;;;;;;;;;;;21.96;18.01;99545.75;4975018;28;1019;-74
2022/03/15 09:18:36;;;;;;;;;;;;;;;21.90;17.87;99533.25;4974926;28;940;-75
2022/03/15 09:21:01;;;;;;;;;;;;;;;21.33;18.48;99539.84;4975140;28;1012;-75
2022/03/15 09:23:26;;;;;;;;;;;;;;;21.22;18.83;99534.16;4942428;28;1903;-74
2022/03/15 09:25:52;;;;;;;;;;;;;;;21.20;18.48;99530.94;4974989;28;1682;-74
2022/03/15 09:28:18;;;;;;;;;;;;;;;21.60;18.41;99537.38;4975113;28;1779;-74
2022/03/15 09:30:44;;;;;;;;;;;;;;;21.88;18.03;99521.53;4942781;28;977;-75
2022/03/15 09:33:09;;;;;;;;;;;;;;;21.74;18.12;99520.34;4950444;29;1150;-74
2022/03/15 09:35:36;;;;;;;;;;;;;;;21.25;18.70;99516.38;4968864;28;1695;-74
2022/03/15 09:38:02;;;;;;;;;;;;;;;21.21;18.81;99512.75;4955491;29;989;-74
2022/03/15 09:40:27;;;;;;;;;;;;;;;21.66;18.23;99506.59;4955663;29;1120;-74
2022/03/15 09:43:02;;;;;;;;;;;;;;;21.89;17.61;99515.44;4955307;29;1906;-75
2022/03/15 09:45:34;;;;;;;;;;;;;;;22.01;17.73;99505.66;4955329;29;1136;-75
2022/03/15 09:48:00;;;;;;;;;;;;;;;21.51;18.40;99505.84;4955472;29;914;-75
2022/03/15 09:50:26;;;;;;;;;;;;;;;21.35;18.60;99500.63;4955325;29;1759;-74
2022/03/15 09:52:56;;;;;;;;;;;;;;;21.57;18.19;99498.53;4955254;29;1102;-74
2022/03/15 09:55:22;;;;;;;;;;;;;;;21.79;17.90;99494.41;4939179;29;1011;-75
2022/03/15 09:57:47;;;;;;;;;;;;;;;22.09;17.45;99495.91;4955019;29;1696;-75
2022/03/15 10:00:16;;;;;;;;;;;;;;;21.52;18.33;99496.94;4955288;29;1026;-75
2022/03/15 10:02:42;;;;;;;;;;;;;;;21.16;18.72;99490.50;4916774;29;1910;-75
2022/03/15 10:05:08;;;;;;;;;;;;;;;21.58;18.26;99494.50;4951315;29;1676;-75
2022/03/15 10:07:34;;;;;;;;;;;;;;;21.91;18.05;99495.16;4954953;29;1148;-75
2022/03/15 10:10:00;;;;;;;;;;;;;;;22.13;17.30;99491.06;4955139;29;933;-75
2022/03/15 10:12:26;;;;;;;;;;;;;;;21.70;18.12;99496.06;4955081;29;1184;-75
2022/03/15 10:14:52;;;;;;;;;;;;;;;21.26;18.33;99495.34;4954144;28;2101;-75
2022/03/15 10:17:17;;;;;;;;;;;;;;;21.24;18.24;99492.13;4955269;29;1035;-75
2022/03/15 10:19:55;;;;;;;;;;;;;;;21.77;17.78;99485.53;4969006;28;1797;-74
2022/03/15 10:22:24;;;;;;;;;;;;;;;21.89;17.76;99480.63;4974252;28;1911;-75
2022/03/15 10:24:49;;;;;;;;;;;;;;;21.87;17.81;99483.06;4973961;28;963;-75
2022/03/15 10:27:15;;;;;;;;;;;;;;;21.39;18.39;99475.13;4974639;28;1041;-75
2022/03/15 10:29:41;;;;;;;;;;;;;;;21.22;18.43;99482.41;4916503;29;1721;-75
2022/03/15 10:32:06;;;;;;;;;;;;;;;21.66;18.01;99473.44;4916825;29;1130;-75
2022/03/15 10:34:32;;;;;;;;;;;;;;;21.94;17.72;99483.03;4916894;29;1041;-74
2022/03/15 10:36:57;;;;;;;;;;;;;;;21.94;17.66;99483.03;4916493;29;1661;-75
2022/03/15 10:39:23;;;;;;;;;;;;;;;21.67;18.00;99477.06;4915501;29;1598;-74
2022/03/15 10:41:59;;;;;;;;;;;;;;;21.25;18.31;99468.25;4916658;29;1119;-75
2022/03/15 10:44:28;;;;;;;;;;;;;;;21.01;18.74;99464.22;4926324;29;1989;-75
2022/03/15 10:47:00;;;;;;;;;;;;;;;21.68;18.00;99456.81;4954844;29;930;-74
2022/03/15 10:49:25;;;;;;;;;;;;;;;21.94;17.33;99454.69;4955064;29;1105;-74
2022/03/15 10:51:52;;;;;;;;;;;;;;;22.15;17.25;99459.47;4935382;29;1058;-75
2022/03/15 10:54:17;;;;;;;;;;;;;;;21.56;18.09;99457.28;4935690;29;942;-74
2022/03/15 10:57:04;;;;;;;;;;;;;;;21.32;18.28;99454.09;4919911;29;1390;-75
2022/03/15 10:59:30;;;;;;;;;;;;;;;21.40;18.39;99448.41;4897527;29;1666;-75
2022/03/15 11:01:55;;;;;;;;;;;;;;;21.70;17.98;99448.72;4897572;29;1196;-75
2022/03/15 11:04:21;;;;;;;;;;;;;;;21.82;17.37;99448.28;4897215;29;2045;-75
2022/03/15 11:06:47;;;;;;;;;;;;;;;22.05;17.43;99449.75;4923115;29;1017;-74
2022/03/15 11:09:19;;;;;;;;;;;;;;;21.66;17.80;99435.78;4919647;29;1438;-75
2022/03/15 11:11:47;;;;;;;;;;;;;;;21.26;18.17;99438.72;4935390;29;1107;-75
2022/03/15 11:14:13;;;;;;;;;;;;;;;21.44;18.29;99437.88;4935249;29;996;-75
2022/03/15 11:16:38;;;;;;;;;;;;;;;21.82;17.73;99441.78;4935091;29;1368;-74
2022/03/15 11:19:04;;;;;;;;;;;;;;;21.92;17.32;99431.63;4919145;29;1821;-75
2022/03/15 11:21:35;;;;;;;;;;;;;;;21.43;18.08;99419.28;4935239;29;1728;-74
2022/03/15 11:24:01;;;;;;;;;;;;;;;21.17;18.12;99406.38;4934920;29;1906;-75
2022/03/15 11:26:29;;;;;;;;;;;;;;;21.44;18.18;99412.41;4917009;29;1119;-75
2022/03/15 11:28:54;;;;;;;;;;;;;;;21.92;17.61;99411.78;4919309;29;1676;-74
2022/03/15 11:31:20;;;;;;;;;;;;;;;21.97;17.38;99419.88;4900454;29;1148;-74
2022/03/15 11:33:47;;;;;;;;;;;;;;;21.72;17.64;99406.63;4881555;29;1011;-75
2022/03/15 11:36:12;;;;;;;;;;;;;;;21.53;17.98;99401.44;4881865;29;1091;-74
2022/03/15 11:38:38;;;;;;;;;;;;;;;21.30;18.38;99394.25;4897780;29;1012;-75
2022/03/15 11:41:03;;;;;;;;;;;;;;;21.51;18.18;99396.19;4869318;29;1450;-74
2022/03/15 11:43:47;;;;;;;;;;;;;;;21.93;17.62;99396.41;4900260;29;1903;-75
2022/03/15 11:46:12;;;;;;;;;;;;;;;22.08;17.38;99375.25;4881633;29;979;-74
2022/03/15 11:48:56;;;;;;;;;;;;;;;22.27;17.29;99380.38;4881542;29;1029;-75
2022/03/15 11:51:24;;;;;;;;;;;;;;;21.43;18.13;99385.31;4881742;29;1004;-75
2022/03/15 11:53:53;;;;;;;;;;;;;;;21.33;18.15;99375.63;4881755;29;1036;-75
2022/03/15 11:56:26;;;;;;;;;;;;;;;21.44;17.92;99382.06;4881619;29;1132;-75
2022/03/15 11:58:57;;;;;;;;;;;;;;;21.98;17.42;99376.13;4883466;29;1950;-74
2022/03/15 12:01:24;;;;;;;;;;;;;;;22.13;17.34;99369.16;4920604;29;1947;-75
2022/03/15 12:03:51;;;;;;;;;;;;;;;21.62;17.78;99365.00;4937928;29;2006;-75
2022/03/15 12:06:17;;;;;;;;;;;;;;;21.38;17.97;99372.38;4918888;29;1014;-74
2022/03/15 12:08:51;;;;;;;;;;;;;;;21.36;18.14;99368.34;4919072;29;933;-75
2022/03/15 12:11:24;;;;;;;;;;;;;;;21.46;17.58;99305.22;4938724;29;1130;-75
2022/03/15 12:13:49;;;;;;;;;;;;;;;21.96;17.29;99361.56;4940792;29;1863;-75
2022/03/15 12:16:21;;;;;;;;;;;;;;;22.20;17.19;99343.59;4956493;28;1644;-74
2022/03/15 12:18:48;;;;;;;;;;;;;;;21.41;18.11;99348.13;4937736;29;1019;-75
2022/03/15 12:21:14;;;;;;;;;;;;;;;21.27;18.26;99335.59;4918627;29;1023;-75
2022/03/15 12:23:42;;;;;;;;;;;;;;;21.27;18.29;99361.06;4918740;29;1923;-74
2022/03/15 12:26:20;;;;;;;;;;;;;;;21.77;17.81;99355.19;4880764;29;1023;-75
2022/03/15 12:28:57;;;;;;;;;;;;;;;21.99;17.60;99343.72;4881265;29;968;-74
2022/03/15 12:31:41;;;;;;;;;;;;;;;21.91;17.48;99337.28;4882460;29;1733;-74
2022/03/15 12:34:08;;;;;;;;;;;;;;;21.31;18.11;99342.06;4899443;29;855;-75
2022/03/15 12:36:45;;;;;;;;;;;;;;;21.28;18.06;99345.69;4903258;29;983;-74
2022/03/15 12:39:12;;;;;;;;;;;;;;;21.82;17.57;99343.44;4917429;29;875;-75
2022/03/15 12:41:37;;;;;;;;;;;;;;;21.99;17.65;99341.69;4918339;29;1125;-74
2022/03/15 12:44:03;;;;;;;;;;;;;;;21.48;18.02;99337.53;4886655;29;1907;-75
2022/03/15 12:46:30;;;;;;;;;;;;;;;21.42;17.90;99344.84;4917939;29;1665;-75
2022/03/15 12:48:57;;;;;;;;;;;;;;;21.19;18.41;99342.50;4921623;29;997;-75
2022/03/15 12:51:22;;;;;;;;;;;;;;;21.50;18.02;99339.94;4939948;29;1159;-74
2022/03/15 12:53:48;;;;;;;;;;;;;;;21.85;17.57;99345.41;4956598;28;1018;-74
2022/03/15 12:56:14;;;;;;;;;;;;;;;22.07;17.30;99333.94;4956453;28;1001;-75
2022/03/15 12:58:39;;;;;;;;;;;;;;;21.37;18.25;99327.50;4939069;29;1636;-75